Kinkler, Texas
Current Conditions -  °F | °C
As of 11:55 AM on Friday 28 Nov 2014 (Local Time) from K66R Reporting Station
Overcast Overcast  
Wind Chill: 69°   Ceiling: 3600
Heat Index: 69°   Visibility: 10mi
Dew Point: 56°   Wind: 8mph
Humidity: 62%   Direction: 180°S
Pressure: 30.26"   Gusts: 17mph
Location:  29.3984°N, 96.8256°W
Report Text: K66R 281755Z AUTO 18007G15KT 10SM OVC036 21/13 A3026 RMK AO2 T02070131 10207 20043
Loading
Personal Weather Stations






























Interactive Weather Map New forecast layout! Learn more

10-Day Weather Forecast

Advertisements
Track Severe Weather on mobile